Main page
METAR-TAF:

METAR-TAF

Airports :

Worthington Municipal Airport

Worthington, Minnesota, United States

latitude: 43-39N, longitude: 095-35W, elevation: 1574 ft

Current weather observation

The report was made 43 minutes ago, at 21:56 UTC
Wind 16 mph from the South/Southeast
Temperature 55°F
Humidity 35%
Pressure 29.99 in. Hg
Visibility: 10 miles
Clear sky

METAR: KOTG 052156Z AUTO 15014KT 10SM CLR 13/M02 A2999 RMK AO2 SLP168 T01331022

Time: 17:39 (22:39 UTC)


TAF: missing

Weather observations and forecasts of more than 4000 airports (METAR and TAF reports).

The available stations are represented by yellow and red dots on the map.

Hover mouse over dot to see the name of the station.

Then click to see weather observations and forecasts.

To change the map : click on the green buttons with a black cross to zoom in, on the green button with a dash to zoom out, or on the green arrows for adjacent maps.


METAR-TAF: